sensor_id;sensor_type;location;lat;lon;timestamp;temperature;humidity
5899;DHT22;2975;50.956;6.962;2023-06-22T00:00:19;23.10;92.20
5899;DHT22;2975;50.956;6.962;2023-06-22T00:02:56;23.10;92.10
5899;DHT22;2975;50.956;6.962;2023-06-22T00:05:32;23.20;92.10
5899;DHT22;2975;50.956;6.962;2023-06-22T00:08:00;23.20;92.00
5899;DHT22;2975;50.956;6.962;2023-06-22T00:10:34;23.20;92.10
5899;DHT22;2975;50.956;6.962;2023-06-22T00:13:09;23.20;92.00
5899;DHT22;2975;50.956;6.962;2023-06-22T00:15:41;23.20;92.10
5899;DHT22;2975;50.956;6.962;2023-06-22T00:18:08;23.10;92.30
5899;DHT22;2975;50.956;6.962;2023-06-22T00:20:42;23.00;92.40
5899;DHT22;2975;50.956;6.962;2023-06-22T00:23:08;22.90;92.50
5899;DHT22;2975;50.956;6.962;2023-06-22T00:25:40;22.90;92.70
5899;DHT22;2975;50.956;6.962;2023-06-22T00:28:12;22.80;92.90
5899;DHT22;2975;50.956;6.962;2023-06-22T00:33:55;22.80;93.70
5899;DHT22;2975;50.956;6.962;2023-06-22T00:36:23;22.70;93.70
5899;DHT22;2975;50.956;6.962;2023-06-22T00:38:53;22.70;93.30
5899;DHT22;2975;50.956;6.962;2023-06-22T00:41:24;22.80;93.10
5899;DHT22;2975;50.956;6.962;2023-06-22T00:43:54;22.80;92.90
5899;DHT22;2975;50.956;6.962;2023-06-22T00:46:23;22.80;92.90
5899;DHT22;2975;50.956;6.962;2023-06-22T00:48:52;22.90;92.80
5899;DHT22;2975;50.956;6.962;2023-06-22T00:51:22;22.90;92.90
5899;DHT22;2975;50.956;6.962;2023-06-22T00:53:52;22.90;92.80
5899;DHT22;2975;50.956;6.962;2023-06-22T00:56:20;22.90;92.90
5899;DHT22;2975;50.956;6.962;2023-06-22T00:58:50;22.90;92.70
5899;DHT22;2975;50.956;6.962;2023-06-22T01:01:21;22.90;92.70
5899;DHT22;2975;50.956;6.962;2023-06-22T01:03:51;22.90;92.90
5899;DHT22;2975;50.956;6.962;2023-06-22T01:06:28;22.80;92.90
5899;DHT22;2975;50.956;6.962;2023-06-22T01:09:05;22.90;92.90
5899;DHT22;2975;50.956;6.962;2023-06-22T01:11:43;22.80;92.80
5899;DHT22;2975;50.956;6.962;2023-06-22T01:14:35;22.80;92.80
5899;DHT22;2975;50.956;6.962;2023-06-22T01:17:05;22.80;92.90
5899;DHT22;2975;50.956;6.962;2023-06-22T01:19:47;22.70;93.60
5899;DHT22;2975;50.956;6.962;2023-06-22T01:22:24;22.60;94.30
5899;DHT22;2975;50.956;6.962;2023-06-22T01:25:01;22.60;94.50
5899;DHT22;2975;50.956;6.962;2023-06-22T01:27:59;22.50;94.50
5899;DHT22;2975;50.956;6.962;2023-06-22T01:30:34;22.50;94.50
5899;DHT22;2975;50.956;6.962;2023-06-22T01:33:13;22.60;94.10
5899;DHT22;2975;50.956;6.962;2023-06-22T01:35:46;22.60;93.90
5899;DHT22;2975;50.956;6.962;2023-06-22T01:38:21;22.60;93.70
5899;DHT22;2975;50.956;6.962;2023-06-22T01:40:51;22.70;93.50
5899;DHT22;2975;50.956;6.962;2023-06-22T01:43:34;22.70;93.50
5899;DHT22;2975;50.956;6.962;2023-06-22T01:46:03;22.60;93.40
5899;DHT22;2975;50.956;6.962;2023-06-22T01:48:43;22.60;94.40
5899;DHT22;2975;50.956;6.962;2023-06-22T01:51:14;22.50;94.50
5899;DHT22;2975;50.956;6.962;2023-06-22T01:53:42;22.50;94.20
5899;DHT22;2975;50.956;6.962;2023-06-22T01:56:09;22.40;94.70
5899;DHT22;2975;50.956;6.962;2023-06-22T01:58:45;22.40;93.90
5899;DHT22;2975;50.956;6.962;2023-06-22T02:01:14;22.30;94.00
5899;DHT22;2975;50.956;6.962;2023-06-22T02:03:53;22.30;94.60
5899;DHT22;2975;50.956;6.962;2023-06-22T02:06:33;22.30;94.30
5899;DHT22;2975;50.956;6.962;2023-06-22T02:09:09;22.30;94.20
5899;DHT22;2975;50.956;6.962;2023-06-22T02:11:40;22.30;94.30
5899;DHT22;2975;50.956;6.962;2023-06-22T02:14:11;22.20;94.40
5899;DHT22;2975;50.956;6.962;2023-06-22T02:16:41;22.20;95.20
5899;DHT22;2975;50.956;6.962;2023-06-22T02:19:13;22.20;94.80
5899;DHT22;2975;50.956;6.962;2023-06-22T02:21:45;22.10;94.70
5899;DHT22;2975;50.956;6.962;2023-06-22T02:24:16;22.10;95.00
5899;DHT22;2975;50.956;6.962;2023-06-22T02:26:43;22.10;95.40
5899;DHT22;2975;50.956;6.962;2023-06-22T02:29:13;22.10;95.40
5899;DHT22;2975;50.956;6.962;2023-06-22T02:31:39;22.10;95.50
5899;DHT22;2975;50.956;6.962;2023-06-22T02:34:04;22.10;95.90
5899;DHT22;2975;50.956;6.962;2023-06-22T02:36:30;22.00;95.70
5899;DHT22;2975;50.956;6.962;2023-06-22T02:38:56;22.00;95.80
5899;DHT22;2975;50.956;6.962;2023-06-22T02:41:26;22.00;95.80
5899;DHT22;2975;50.956;6.962;2023-06-22T02:43:52;22.00;95.70
5899;DHT22;2975;50.956;6.962;2023-06-22T02:46:17;22.00;95.70
5899;DHT22;2975;50.956;6.962;2023-06-22T02:48:43;22.00;95.90
5899;DHT22;2975;50.956;6.962;2023-06-22T02:51:09;22.00;96.10
5899;DHT22;2975;50.956;6.962;2023-06-22T02:53:34;21.90;95.80
5899;DHT22;2975;50.956;6.962;2023-06-22T02:56:02;21.90;96.10
5899;DHT22;2975;50.956;6.962;2023-06-22T02:58:31;21.90;96.10
5899;DHT22;2975;50.956;6.962;2023-06-22T03:00:58;21.90;96.10
5899;DHT22;2975;50.956;6.962;2023-06-22T03:03:30;21.80;96.30
5899;DHT22;2975;50.956;6.962;2023-06-22T03:05:55;21.80;96.20
5899;DHT22;2975;50.956;6.962;2023-06-22T03:08:21;21.80;96.20
5899;DHT22;2975;50.956;6.962;2023-06-22T03:10:47;21.80;96.50
5899;DHT22;2975;50.956;6.962;2023-06-22T03:13:13;21.70;96.40
5899;DHT22;2975;50.956;6.962;2023-06-22T03:15:38;21.70;96.60
5899;DHT22;2975;50.956;6.962;2023-06-22T03:18:04;21.70;96.80
5899;DHT22;2975;50.956;6.962;2023-06-22T03:20:30;21.70;96.90
5899;DHT22;2975;50.956;6.962;2023-06-22T03:22:59;21.70;97.10
5899;DHT22;2975;50.956;6.962;2023-06-22T03:25:25;21.70;96.90
5899;DHT22;2975;50.956;6.962;2023-06-22T03:27:50;21.80;97.20
5899;DHT22;2975;50.956;6.962;2023-06-22T03:30:16;21.80;97.20
5899;DHT22;2975;50.956;6.962;2023-06-22T03:32:41;21.80;97.10
5899;DHT22;2975;50.956;6.962;2023-06-22T03:35:08;21.80;97.00
5899;DHT22;2975;50.956;6.962;2023-06-22T03:37:34;21.90;97.20
5899;DHT22;2975;50.956;6.962;2023-06-22T03:40:00;21.90;97.40
5899;DHT22;2975;50.956;6.962;2023-06-22T03:42:26;21.90;97.40
5899;DHT22;2975;50.956;6.962;2023-06-22T03:44:51;21.90;97.30
5899;DHT22;2975;50.956;6.962;2023-06-22T03:47:17;21.90;97.10
5899;DHT22;2975;50.956;6.962;2023-06-22T03:49:43;21.90;97.10
5899;DHT22;2975;50.956;6.962;2023-06-22T03:52:09;21.90;97.10
5899;DHT22;2975;50.956;6.962;2023-06-22T03:54:36;21.90;97.40
5899;DHT22;2975;50.956;6.962;2023-06-22T03:57:01;21.90;97.20
5899;DHT22;2975;50.956;6.962;2023-06-22T03:59:27;22.00;97.10
5899;DHT22;2975;50.956;6.962;2023-06-22T04:01:53;22.10;96.50
5899;DHT22;2975;50.956;6.962;2023-06-22T04:04:18;22.20;96.20
5899;DHT22;2975;50.956;6.962;2023-06-22T04:06:44;22.20;96.20
5899;DHT22;2975;50.956;6.962;2023-06-22T04:09:09;22.20;96.20
5899;DHT22;2975;50.956;6.962;2023-06-22T04:11:35;22.30;96.20
5899;DHT22;2975;50.956;6.962;2023-06-22T04:14:01;22.30;96.30
5899;DHT22;2975;50.956;6.962;2023-06-22T04:16:26;22.30;96.80
5899;DHT22;2975;50.956;6.962;2023-06-22T04:18:52;22.30;96.90
5899;DHT22;2975;50.956;6.962;2023-06-22T04:21:18;22.40;97.20
5899;DHT22;2975;50.956;6.962;2023-06-22T04:23:45;22.50;97.10
5899;DHT22;2975;50.956;6.962;2023-06-22T04:26:11;22.60;97.50
5899;DHT22;2975;50.956;6.962;2023-06-22T04:28:37;22.60;97.10
5899;DHT22;2975;50.956;6.962;2023-06-22T04:31:03;22.70;97.20
5899;DHT22;2975;50.956;6.962;2023-06-22T04:33:28;22.70;97.20
5899;DHT22;2975;50.956;6.962;2023-06-22T04:35:55;22.70;97.10
5899;DHT22;2975;50.956;6.962;2023-06-22T04:38:23;22.80;97.40
5899;DHT22;2975;50.956;6.962;2023-06-22T04:40:49;22.80;97.40
5899;DHT22;2975;50.956;6.962;2023-06-22T04:43:15;22.80;97.50
5899;DHT22;2975;50.956;6.962;2023-06-22T04:45:41;22.70;97.70
5899;DHT22;2975;50.956;6.962;2023-06-22T04:48:06;22.70;98.00
5899;DHT22;2975;50.956;6.962;2023-06-22T04:50:33;22.80;98.00
5899;DHT22;2975;50.956;6.962;2023-06-22T04:52:59;22.80;98.20
5899;DHT22;2975;50.956;6.962;2023-06-22T04:55:25;22.80;98.50
5899;DHT22;2975;50.956;6.962;2023-06-22T04:57:51;22.90;98.40
5899;DHT22;2975;50.956;6.962;2023-06-22T05:00:18;22.80;98.90
5899;DHT22;2975;50.956;6.962;2023-06-22T05:02:45;22.70;99.20
5899;DHT22;2975;50.956;6.962;2023-06-22T05:05:12;22.60;99.90
5899;DHT22;2975;50.956;6.962;2023-06-22T05:07:45;22.60;99.90
5899;DHT22;2975;50.956;6.962;2023-06-22T05:10:13;22.50;99.90
5899;DHT22;2975;50.956;6.962;2023-06-22T05:12:40;22.40;99.90
5899;DHT22;2975;50.956;6.962;2023-06-22T05:15:07;22.40;99.90
5899;DHT22;2975;50.956;6.962;2023-06-22T05:17:33;22.40;99.90
5899;DHT22;2975;50.956;6.962;2023-06-22T05:19:59;22.40;99.90
5899;DHT22;2975;50.956;6.962;2023-06-22T05:22:24;22.50;99.90
5899;DHT22;2975;50.956;6.962;2023-06-22T05:24:50;22.50;99.90
5899;DHT22;2975;50.956;6.962;2023-06-22T05:27:15;22.60;99.90
5899;DHT22;2975;50.956;6.962;2023-06-22T05:29:41;22.70;99.90
5899;DHT22;2975;50.956;6.962;2023-06-22T05:32:08;22.80;99.90
5899;DHT22;2975;50.956;6.962;2023-06-22T05:34:34;22.90;99.90
5899;DHT22;2975;50.956;6.962;2023-06-22T05:36:59;23.00;99.90
5899;DHT22;2975;50.956;6.962;2023-06-22T05:39:25;23.10;99.90
5899;DHT22;2975;50.956;6.962;2023-06-22T05:41:51;23.00;99.90
5899;DHT22;2975;50.956;6.962;2023-06-22T05:44:17;23.10;99.90
5899;DHT22;2975;50.956;6.962;2023-06-22T05:46:44;23.10;99.90
5899;DHT22;2975;50.956;6.962;2023-06-22T05:49:14;23.20;99.90
5899;DHT22;2975;50.956;6.962;2023-06-22T05:51:41;23.40;99.90
5899;DHT22;2975;50.956;6.962;2023-06-22T05:54:06;23.70;99.90
5899;DHT22;2975;50.956;6.962;2023-06-22T05:56:34;23.90;99.90
5899;DHT22;2975;50.956;6.962;2023-06-22T05:58:59;24.30;99.30
5899;DHT22;2975;50.956;6.962;2023-06-22T06:01:25;24.60;98.80
5899;DHT22;2975;50.956;6.962;2023-06-22T06:03:51;26.10;96.80
5899;DHT22;2975;50.956;6.962;2023-06-22T06:06:18;28.80;93.50
5899;DHT22;2975;50.956;6.962;2023-06-22T06:08:46;31.40;90.80
5899;DHT22;2975;50.956;6.962;2023-06-22T06:11:12;33.10;83.30
5899;DHT22;2975;50.956;6.962;2023-06-22T06:13:37;34.40;76.70
5899;DHT22;2975;50.956;6.962;2023-06-22T06:16:03;34.80;72.90
5899;DHT22;2975;50.956;6.962;2023-06-22T06:18:29;34.50;69.90
5899;DHT22;2975;50.956;6.962;2023-06-22T06:20:54;34.00;71.70
5899;DHT22;2975;50.956;6.962;2023-06-22T06:23:20;33.70;70.70
5899;DHT22;2975;50.956;6.962;2023-06-22T06:25:45;32.70;71.70
5899;DHT22;2975;50.956;6.962;2023-06-22T06:28:11;31.60;74.40
5899;DHT22;2975;50.956;6.962;2023-06-22T06:30:36;30.40;78.60
5899;DHT22;2975;50.956;6.962;2023-06-22T06:33:02;30.20;79.50
5899;DHT22;2975;50.956;6.962;2023-06-22T06:35:30;29.90;80.00
5899;DHT22;2975;50.956;6.962;2023-06-22T06:37:55;29.60;81.90
5899;DHT22;2975;50.956;6.962;2023-06-22T06:40:21;30.60;83.00
5899;DHT22;2975;50.956;6.962;2023-06-22T06:42:48;31.60;81.40
5899;DHT22;2975;50.956;6.962;2023-06-22T06:45:18;32.40;77.60
5899;DHT22;2975;50.956;6.962;2023-06-22T06:47:44;32.40;75.60
5899;DHT22;2975;50.956;6.962;2023-06-22T06:50:11;31.60;76.50
5899;DHT22;2975;50.956;6.962;2023-06-22T06:52:37;30.70;79.10
5899;DHT22;2975;50.956;6.962;2023-06-22T06:55:03;30.20;80.80
5899;DHT22;2975;50.956;6.962;2023-06-22T06:57:30;29.90;82.00
5899;DHT22;2975;50.956;6.962;2023-06-22T06:59:56;29.60;83.00
5899;DHT22;2975;50.956;6.962;2023-06-22T07:02:22;29.20;84.40
5899;DHT22;2975;50.956;6.962;2023-06-22T07:04:48;28.80;86.00
5899;DHT22;2975;50.956;6.962;2023-06-22T07:07:14;28.30;86.40
5899;DHT22;2975;50.956;6.962;2023-06-22T07:09:40;27.60;89.90
5899;DHT22;2975;50.956;6.962;2023-06-22T07:12:06;27.40;90.50
5899;DHT22;2975;50.956;6.962;2023-06-22T07:14:31;27.60;90.10
5899;DHT22;2975;50.956;6.962;2023-06-22T07:16:58;27.60;90.20
5899;DHT22;2975;50.956;6.962;2023-06-22T07:19:29;28.10;90.10
5899;DHT22;2975;50.956;6.962;2023-06-22T07:21:57;28.30;89.50
5899;DHT22;2975;50.956;6.962;2023-06-22T07:24:24;28.50;87.80
5899;DHT22;2975;50.956;6.962;2023-06-22T07:26:50;28.70;87.10
5899;DHT22;2975;50.956;6.962;2023-06-22T07:29:20;28.80;86.70
5899;DHT22;2975;50.956;6.962;2023-06-22T07:31:47;28.80;86.80
5899;DHT22;2975;50.956;6.962;2023-06-22T07:34:13;28.70;86.90
5899;DHT22;2975;50.956;6.962;2023-06-22T07:36:38;28.40;86.50
5899;DHT22;2975;50.956;6.962;2023-06-22T07:39:04;28.60;86.60
5899;DHT22;2975;50.956;6.962;2023-06-22T07:41:30;28.50;87.30
5899;DHT22;2975;50.956;6.962;2023-06-22T07:43:56;28.20;88.20
5899;DHT22;2975;50.956;6.962;2023-06-22T07:46:22;28.00;89.00
5899;DHT22;2975;50.956;6.962;2023-06-22T07:48:48;28.00;90.00
5899;DHT22;2975;50.956;6.962;2023-06-22T07:51:14;27.70;90.40
5899;DHT22;2975;50.956;6.962;2023-06-22T07:53:44;27.80;90.60
5899;DHT22;2975;50.956;6.962;2023-06-22T07:56:13;28.20;90.10
5899;DHT22;2975;50.956;6.962;2023-06-22T07:58:39;28.20;90.20
5899;DHT22;2975;50.956;6.962;2023-06-22T08:01:05;28.40;90.40
5899;DHT22;2975;50.956;6.962;2023-06-22T08:03:31;28.30;90.30
5899;DHT22;2975;50.956;6.962;2023-06-22T08:05:57;27.90;90.70
5899;DHT22;2975;50.956;6.962;2023-06-22T08:08:23;27.60;90.90
5899;DHT22;2975;50.956;6.962;2023-06-22T08:10:49;27.70;91.10
5899;DHT22;2975;50.956;6.962;2023-06-22T08:13:14;27.50;91.10
5899;DHT22;2975;50.956;6.962;2023-06-22T08:15:40;27.60;90.90
5899;DHT22;2975;50.956;6.962;2023-06-22T08:18:05;27.30;91.30
5899;DHT22;2975;50.956;6.962;2023-06-22T08:20:31;27.40;91.30
5899;DHT22;2975;50.956;6.962;2023-06-22T08:22:58;27.50;91.50
5899;DHT22;2975;50.956;6.962;2023-06-22T08:25:26;27.70;91.20
5899;DHT22;2975;50.956;6.962;2023-06-22T08:27:51;27.70;91.30
5899;DHT22;2975;50.956;6.962;2023-06-22T08:30:17;27.60;91.40
5899;DHT22;2975;50.956;6.962;2023-06-22T08:32:44;27.50;91.70
5899;DHT22;2975;50.956;6.962;2023-06-22T08:35:09;27.80;91.50
5899;DHT22;2975;50.956;6.962;2023-06-22T08:37:35;27.80;91.20
5899;DHT22;2975;50.956;6.962;2023-06-22T08:40:03;27.80;91.20
5899;DHT22;2975;50.956;6.962;2023-06-22T08:42:40;27.80;91.40
5899;DHT22;2975;50.956;6.962;2023-06-22T08:45:06;27.80;91.30
5899;DHT22;2975;50.956;6.962;2023-06-22T08:47:32;27.50;91.30
5899;DHT22;2975;50.956;6.962;2023-06-22T08:49:58;27.50;92.00
5899;DHT22;2975;50.956;6.962;2023-06-22T08:52:24;27.70;91.60
5899;DHT22;2975;50.956;6.962;2023-06-22T08:54:49;28.20;91.50
5899;DHT22;2975;50.956;6.962;2023-06-22T08:57:15;28.70;90.50
5899;DHT22;2975;50.956;6.962;2023-06-22T08:59:42;28.90;90.00
5899;DHT22;2975;50.956;6.962;2023-06-22T09:02:07;29.10;90.10
5899;DHT22;2975;50.956;6.962;2023-06-22T09:04:33;29.20;90.00
5899;DHT22;2975;50.956;6.962;2023-06-22T09:07:03;29.20;89.50
5899;DHT22;2975;50.956;6.962;2023-06-22T09:09:29;29.10;89.80
5899;DHT22;2975;50.956;6.962;2023-06-22T09:11:54;29.10;89.80
5899;DHT22;2975;50.956;6.962;2023-06-22T09:14:20;29.10;90.20
5899;DHT22;2975;50.956;6.962;2023-06-22T09:16:46;29.30;88.70
5899;DHT22;2975;50.956;6.962;2023-06-22T09:19:12;29.30;89.20
5899;DHT22;2975;50.956;6.962;2023-06-22T09:21:37;29.10;89.40
5899;DHT22;2975;50.956;6.962;2023-06-22T09:24:03;29.00;88.80
5899;DHT22;2975;50.956;6.962;2023-06-22T09:26:29;29.10;89.10
5899;DHT22;2975;50.956;6.962;2023-06-22T09:28:55;29.10;89.20
5899;DHT22;2975;50.956;6.962;2023-06-22T09:31:20;29.10;88.30
5899;DHT22;2975;50.956;6.962;2023-06-22T09:33:55;28.90;89.10
5899;DHT22;2975;50.956;6.962;2023-06-22T09:36:21;29.10;88.90
5899;DHT22;2975;50.956;6.962;2023-06-22T09:38:48;29.30;87.80
5899;DHT22;2975;50.956;6.962;2023-06-22T09:41:13;29.30;88.00
5899;DHT22;2975;50.956;6.962;2023-06-22T09:43:39;29.70;86.50
5899;DHT22;2975;50.956;6.962;2023-06-22T09:46:05;29.70;86.30
5899;DHT22;2975;50.956;6.962;2023-06-22T09:48:32;29.80;85.70
5899;DHT22;2975;50.956;6.962;2023-06-22T09:50:57;29.90;84.80
5899;DHT22;2975;50.956;6.962;2023-06-22T09:53:23;29.90;85.60
5899;DHT22;2975;50.956;6.962;2023-06-22T09:55:49;30.30;85.10
5899;DHT22;2975;50.956;6.962;2023-06-22T09:58:14;30.30;83.90
5899;DHT22;2975;50.956;6.962;2023-06-22T10:00:40;29.90;83.60
5899;DHT22;2975;50.956;6.962;2023-06-22T10:03:07;29.90;84.70
5899;DHT22;2975;50.956;6.962;2023-06-22T10:05:33;30.20;83.90
5899;DHT22;2975;50.956;6.962;2023-06-22T10:07:58;30.40;83.60
5899;DHT22;2975;50.956;6.962;2023-06-22T10:10:24;30.20;83.30
5899;DHT22;2975;50.956;6.962;2023-06-22T10:12:57;30.10;83.20
5899;DHT22;2975;50.956;6.962;2023-06-22T10:15:23;29.70;84.00
5899;DHT22;2975;50.956;6.962;2023-06-22T10:17:49;29.30;84.80
5899;DHT22;2975;50.956;6.962;2023-06-22T10:20:14;28.90;85.70
5899;DHT22;2975;50.956;6.962;2023-06-22T10:22:44;28.50;87.80
5899;DHT22;2975;50.956;6.962;2023-06-22T10:25:11;28.30;88.90
5899;DHT22;2975;50.956;6.962;2023-06-22T10:27:37;28.10;90.00
5899;DHT22;2975;50.956;6.962;2023-06-22T10:30:06;27.80;90.50
5899;DHT22;2975;50.956;6.962;2023-06-22T10:32:32;27.60;90.60
5899;DHT22;2975;50.956;6.962;2023-06-22T10:34:58;27.50;92.40
5899;DHT22;2975;50.956;6.962;2023-06-22T10:37:23;27.30;94.50
5899;DHT22;2975;50.956;6.962;2023-06-22T10:39:49;27.10;93.80
5899;DHT22;2975;50.956;6.962;2023-06-22T10:42:15;27.00;94.70
5899;DHT22;2975;50.956;6.962;2023-06-22T10:44:40;26.80;96.20
5899;DHT22;2975;50.956;6.962;2023-06-22T10:47:08;26.60;99.90
5899;DHT22;2975;50.956;6.962;2023-06-22T10:49:34;26.40;99.90
5899;DHT22;2975;50.956;6.962;2023-06-22T10:51:59;26.20;99.90
5899;DHT22;2975;50.956;6.962;2023-06-22T10:54:25;25.90;99.90
5899;DHT22;2975;50.956;6.962;2023-06-22T10:56:50;25.60;99.90
5899;DHT22;2975;50.956;6.962;2023-06-22T10:59:16;25.30;99.90
5899;DHT22;2975;50.956;6.962;2023-06-22T11:01:42;25.10;99.90
5899;DHT22;2975;50.956;6.962;2023-06-22T11:04:07;24.90;99.90
5899;DHT22;2975;50.956;6.962;2023-06-22T11:06:33;24.80;99.90
5899;DHT22;2975;50.956;6.962;2023-06-22T11:08:58;24.50;99.90
5899;DHT22;2975;50.956;6.962;2023-06-22T11:11:25;24.30;99.90
5899;DHT22;2975;50.956;6.962;2023-06-22T11:13:52;24.20;99.90
5899;DHT22;2975;50.956;6.962;2023-06-22T11:16:18;24.00;99.90
5899;DHT22;2975;50.956;6.962;2023-06-22T11:18:43;24.20;99.90
5899;DHT22;2975;50.956;6.962;2023-06-22T11:21:09;24.30;99.90
5899;DHT22;2975;50.956;6.962;2023-06-22T11:23:35;24.20;99.90
5899;DHT22;2975;50.956;6.962;2023-06-22T11:26:00;24.20;99.90
5899;DHT22;2975;50.956;6.962;2023-06-22T11:28:26;24.30;99.90
5899;DHT22;2975;50.956;6.962;2023-06-22T11:30:51;24.30;99.90
5899;DHT22;2975;50.956;6.962;2023-06-22T11:33:17;24.30;99.90
5899;DHT22;2975;50.956;6.962;2023-06-22T11:35:42;24.40;99.90
5899;DHT22;2975;50.956;6.962;2023-06-22T11:38:08;24.90;99.90
5899;DHT22;2975;50.956;6.962;2023-06-22T11:40:34;25.30;99.90
5899;DHT22;2975;50.956;6.962;2023-06-22T11:42:59;25.60;99.90
5899;DHT22;2975;50.956;6.962;2023-06-22T11:45:25;25.80;99.90
5899;DHT22;2975;50.956;6.962;2023-06-22T11:47:51;25.90;99.90
5899;DHT22;2975;50.956;6.962;2023-06-22T11:50:16;26.00;99.90
5899;DHT22;2975;50.956;6.962;2023-06-22T11:52:42;25.50;99.90
5899;DHT22;2975;50.956;6.962;2023-06-22T11:55:08;25.30;99.90
5899;DHT22;2975;50.956;6.962;2023-06-22T11:57:35;25.20;99.90
5899;DHT22;2975;50.956;6.962;2023-06-22T12:00:01;25.30;99.90
5899;DHT22;2975;50.956;6.962;2023-06-22T12:02:26;25.60;99.90
5899;DHT22;2975;50.956;6.962;2023-06-22T12:04:52;26.30;99.90
5899;DHT22;2975;50.956;6.962;2023-06-22T12:07:18;27.00;99.90
5899;DHT22;2975;50.956;6.962;2023-06-22T12:09:43;27.10;99.90
5899;DHT22;2975;50.956;6.962;2023-06-22T12:12:09;27.10;99.90
5899;DHT22;2975;50.956;6.962;2023-06-22T12:14:35;27.10;99.90
5899;DHT22;2975;50.956;6.962;2023-06-22T12:17:01;26.60;99.90
5899;DHT22;2975;50.956;6.962;2023-06-22T12:19:26;26.30;99.90
5899;DHT22;2975;50.956;6.962;2023-06-22T12:21:52;26.00;99.90
5899;DHT22;2975;50.956;6.962;2023-06-22T12:24:17;26.10;99.90
5899;DHT22;2975;50.956;6.962;2023-06-22T12:26:43;26.00;99.90
5899;DHT22;2975;50.956;6.962;2023-06-22T12:29:09;25.70;99.90
5899;DHT22;2975;50.956;6.962;2023-06-22T12:31:36;25.70;99.90
5899;DHT22;2975;50.956;6.962;2023-06-22T12:34:04;25.50;99.90
5899;DHT22;2975;50.956;6.962;2023-06-22T12:36:29;25.30;99.90
5899;DHT22;2975;50.956;6.962;2023-06-22T12:38:55;25.40;99.90
5899;DHT22;2975;50.956;6.962;2023-06-22T12:41:20;25.90;99.90
5899;DHT22;2975;50.956;6.962;2023-06-22T12:43:46;26.20;99.90
5899;DHT22;2975;50.956;6.962;2023-06-22T12:46:12;26.30;99.90
5899;DHT22;2975;50.956;6.962;2023-06-22T12:48:37;26.40;99.90
5899;DHT22;2975;50.956;6.962;2023-06-22T12:51:09;26.50;99.90
5899;DHT22;2975;50.956;6.962;2023-06-22T12:53:35;26.50;99.90
5899;DHT22;2975;50.956;6.962;2023-06-22T12:56:01;26.30;99.90
5899;DHT22;2975;50.956;6.962;2023-06-22T12:58:26;25.90;99.90
5899;DHT22;2975;50.956;6.962;2023-06-22T13:00:52;26.00;99.90
5899;DHT22;2975;50.956;6.962;2023-06-22T13:03:18;26.00;99.90
5899;DHT22;2975;50.956;6.962;2023-06-22T13:05:43;26.10;99.90
5899;DHT22;2975;50.956;6.962;2023-06-22T13:08:09;25.80;99.90
5899;DHT22;2975;50.956;6.962;2023-06-22T13:10:36;25.90;99.90
5899;DHT22;2975;50.956;6.962;2023-06-22T13:13:01;26.10;99.90
5899;DHT22;2975;50.956;6.962;2023-06-22T13:15:28;26.00;99.90
5899;DHT22;2975;50.956;6.962;2023-06-22T13:17:54;26.20;99.90
5899;DHT22;2975;50.956;6.962;2023-06-22T13:20:19;26.40;99.90
5899;DHT22;2975;50.956;6.962;2023-06-22T13:22:45;26.30;99.90
5899;DHT22;2975;50.956;6.962;2023-06-22T13:25:11;26.20;99.90
5899;DHT22;2975;50.956;6.962;2023-06-22T13:27:41;26.30;99.90
5899;DHT22;2975;50.956;6.962;2023-06-22T13:30:07;26.40;99.90
5899;DHT22;2975;50.956;6.962;2023-06-22T13:32:33;26.60;99.90
5899;DHT22;2975;50.956;6.962;2023-06-22T13:34:59;26.70;99.90
5899;DHT22;2975;50.956;6.962;2023-06-22T13:37:25;26.80;99.90
5899;DHT22;2975;50.956;6.962;2023-06-22T13:39:51;26.90;99.90
5899;DHT22;2975;50.956;6.962;2023-06-22T13:42:17;27.10;99.90
5899;DHT22;2975;50.956;6.962;2023-06-22T13:44:42;27.30;99.90
5899;DHT22;2975;50.956;6.962;2023-06-22T13:47:08;27.50;99.90
5899;DHT22;2975;50.956;6.962;2023-06-22T13:49:34;27.60;99.90
5899;DHT22;2975;50.956;6.962;2023-06-22T13:52:00;27.60;99.90
5899;DHT22;2975;50.956;6.962;2023-06-22T13:54:25;27.70;99.90
5899;DHT22;2975;50.956;6.962;2023-06-22T13:56:51;27.30;99.90
5899;DHT22;2975;50.956;6.962;2023-06-22T13:59:16;27.30;99.90
5899;DHT22;2975;50.956;6.962;2023-06-22T14:01:42;27.30;99.90
5899;DHT22;2975;50.956;6.962;2023-06-22T14:04:08;27.40;99.90
5899;DHT22;2975;50.956;6.962;2023-06-22T14:06:34;27.30;99.90
5899;DHT22;2975;50.956;6.962;2023-06-22T14:09:00;27.60;99.90
5899;DHT22;2975;50.956;6.962;2023-06-22T14:11:25;27.60;99.90
5899;DHT22;2975;50.956;6.962;2023-06-22T14:13:51;27.50;99.90
5899;DHT22;2975;50.956;6.962;2023-06-22T14:16:16;27.20;99.90
5899;DHT22;2975;50.956;6.962;2023-06-22T14:18:42;27.20;99.90
5899;DHT22;2975;50.956;6.962;2023-06-22T14:21:08;27.40;99.90
5899;DHT22;2975;50.956;6.962;2023-06-22T14:23:33;27.30;99.90
5899;DHT22;2975;50.956;6.962;2023-06-22T14:25:59;27.30;99.90
5899;DHT22;2975;50.956;6.962;2023-06-22T14:28:25;27.30;99.90
5899;DHT22;2975;50.956;6.962;2023-06-22T14:30:50;27.20;99.90
5899;DHT22;2975;50.956;6.962;2023-06-22T14:33:16;27.20;99.90
5899;DHT22;2975;50.956;6.962;2023-06-22T14:35:41;27.30;99.90
5899;DHT22;2975;50.956;6.962;2023-06-22T14:38:07;27.70;99.80
5899;DHT22;2975;50.956;6.962;2023-06-22T14:40:33;27.50;99.90
5899;DHT22;2975;50.956;6.962;2023-06-22T14:43:01;27.40;99.70
5899;DHT22;2975;50.956;6.962;2023-06-22T14:45:27;27.20;99.90
5899;DHT22;2975;50.956;6.962;2023-06-22T14:47:52;27.00;99.90
5899;DHT22;2975;50.956;6.962;2023-06-22T14:50:18;26.80;99.90
5899;DHT22;2975;50.956;6.962;2023-06-22T14:52:44;26.70;99.90
5899;DHT22;2975;50.956;6.962;2023-06-22T14:55:09;26.60;99.90
5899;DHT22;2975;50.956;6.962;2023-06-22T14:57:35;26.50;99.90
5899;DHT22;2975;50.956;6.962;2023-06-22T15:00:00;26.40;99.90
5899;DHT22;2975;50.956;6.962;2023-06-22T15:02:27;26.30;99.90
5899;DHT22;2975;50.956;6.962;2023-06-22T15:04:53;26.10;99.90
5899;DHT22;2975;50.956;6.962;2023-06-22T15:07:19;25.70;99.90
5899;DHT22;2975;50.956;6.962;2023-06-22T15:09:45;25.30;99.90
5899;DHT22;2975;50.956;6.962;2023-06-22T15:12:11;24.80;99.90
5899;DHT22;2975;50.956;6.962;2023-06-22T15:14:40;24.20;99.90
5899;DHT22;2975;50.956;6.962;2023-06-22T15:17:07;23.70;99.90
5899;DHT22;2975;50.956;6.962;2023-06-22T15:19:36;23.50;99.90
5899;DHT22;2975;50.956;6.962;2023-06-22T15:22:04;23.50;99.90
5899;DHT22;2975;50.956;6.962;2023-06-22T15:24:31;23.40;99.90
5899;DHT22;2975;50.956;6.962;2023-06-22T15:26:57;23.30;99.90
5899;DHT22;2975;50.956;6.962;2023-06-22T15:29:22;23.00;99.90
5899;DHT22;2975;50.956;6.962;2023-06-22T15:31:48;22.80;99.90
5899;DHT22;2975;50.956;6.962;2023-06-22T15:34:14;22.50;99.90
5899;DHT22;2975;50.956;6.962;2023-06-22T15:36:39;22.30;99.90
5899;DHT22;2975;50.956;6.962;2023-06-22T15:39:05;22.20;99.90
5899;DHT22;2975;50.956;6.962;2023-06-22T15:41:31;22.20;99.90
5899;DHT22;2975;50.956;6.962;2023-06-22T15:43:56;22.30;99.90
5899;DHT22;2975;50.956;6.962;2023-06-22T15:46:22;22.30;99.90
5899;DHT22;2975;50.956;6.962;2023-06-22T15:48:48;22.40;99.90
5899;DHT22;2975;50.956;6.962;2023-06-22T15:51:13;22.40;99.90
5899;DHT22;2975;50.956;6.962;2023-06-22T15:53:40;22.50;99.90
5899;DHT22;2975;50.956;6.962;2023-06-22T15:56:06;22.50;99.90
5899;DHT22;2975;50.956;6.962;2023-06-22T15:58:37;22.50;99.90
5899;DHT22;2975;50.956;6.962;2023-06-22T16:01:04;22.60;99.90
5899;DHT22;2975;50.956;6.962;2023-06-22T16:03:30;22.70;99.90